Arlberg Wetter
Wetterdaten: aktuell Dienstag, 11.08.2020 15:00
Datum Zeit Temp. A. Temp. A. min Temp. A. max Feuchte A. Luftdruck Regen Wind Richtung Richtung Sonnenschein Solar Taupunkt Windben
11.08.2020 15:00 28,6 C 28,6 C 28,7 C 41 % 1011,7 hPa 0,0 l/m 0,0 km/h W-SW 252 50 min 191 W/m 14,0 C 0,0 km/h
11.08.2020 14:00 27,9 C 27,9 C 28,0 C 40 % 1012,0 hPa 0,0 l/m 0,6 km/h W 275 60 min 909 W/m 13,0 C 4,8 km/h
11.08.2020 13:00 27,1 C 26,8 C 27,1 C 49 % 1012,6 hPa 0,0 l/m 0,6 km/h W 269 60 min 854 W/m 15,4 C 4,8 km/h
11.08.2020 12:00 24,0 C 23,9 C 24,0 C 54 % 1013,2 hPa 0,2 l/m 0,0 km/h SO 130 60 min 777 W/m 14,1 C 0,0 km/h
11.08.2020 11:00 20,9 C 20,5 C 20,9 C 72 % 1013,5 hPa 0,0 l/m 0,0 km/h SO 130 60 min 669 W/m 15,7 C 0,0 km/h
11.08.2020 10:00 17,8 C 17,4 C 17,8 C 78 % 1014,1 hPa 0,0 l/m 0,0 km/h SO 130 60 min 539 W/m 13,9 C 0,0 km/h
11.08.2020 09:00 14,3 C 14,0 C 14,3 C 91 % 1014,9 hPa 0,0 l/m 0,0 km/h SO 130 40 min 369 W/m 12,8 C 0,0 km/h
11.08.2020 08:00 11,9 C 11,8 C 11,9 C 95 % 1015,1 hPa 0,0 l/m 0,0 km/h SO 130 5 min 164 W/m 11,1 C 0,0 km/h
11.08.2020 07:00 11,2 C 11,1 C 11,2 C 94 % 1014,8 hPa 0,0 l/m 0,0 km/h SO 130 0 min 20 W/m 10,3 C 0,0 km/h
11.08.2020 06:00 11,2 C 11,2 C 11,3 C 94 % 1014,6 hPa 0,0 l/m 0,0 km/h SO 130 0 min 0 W/m 10,3 C 0,0 km/h
11.08.2020 05:00 11,8 C 11,8 C 11,8 C 94 % 1014,4 hPa 0,0 l/m 0,0 km/h SO 130 0 min 0 W/m 10,9 C 0,0 km/h
11.08.2020 04:00 12,3 C 12,3 C 12,4 C 93 % 1014,4 hPa 0,0 l/m 0,0 km/h SO 130 0 min 0 W/m 11,2 C 0,0 km/h
11.08.2020 03:00 12,8 C 12,8 C 12,9 C 93 % 1014,5 hPa 0,0 l/m 0,0 km/h SO 130 0 min 0 W/m 11,7 C 0,0 km/h
11.08.2020 02:00 13,7 C 13,7 C 13,7 C 92 % 1014,6 hPa 0,0 l/m 0,0 km/h SO 130 0 min 0 W/m 12,4 C 0,0 km/h
11.08.2020 01:00 14,4 C 14,4 C 14,6 C 92 % 1014,5 hPa 0,0 l/m 0,0 km/h SW 222 0 min 0 W/m 13,1 C 0,0 km/h
11.08.2020 00:00 15,0 C 14,9 C 15,1 C 92 % 1014,8 hPa 0,0 l/m 0,0 km/h SW 222 0 min 0 W/m 13,7 C 0,0 km/h
10.08.2020 23:00 15,6 C 15,6 C 15,6 C 91 % 1014,7 hPa 0,0 l/m 0,0 km/h SW 222 0 min 0 W/m 14,1 C 0,0 km/h
10.08.2020 22:00 16,1 C 16,1 C 16,1 C 87 % 1014,1 hPa 0,2 l/m 2,3 km/h W-NW 298 0 min 0 W/m 13,9 C 8,0 km/h
10.08.2020 21:00 16,4 C 16,4 C 16,6 C 88 % 1013,8 hPa 1,4 l/m 0,0 km/h W-SW 244 0 min 0 W/m 14,4 C 0,0 km/h
10.08.2020 20:00 18,7 C 18,7 C 18,8 C 71 % 1012,1 hPa 0,0 l/m 6,8 km/h O 94 0 min 4 W/m 13,3 C 24,1 km/h
10.08.2020 19:00 22,3 C 22,3 C 23,3 C 66 % 1009,7 hPa 0,0 l/m 7,0 km/h O 84 0 min 36 W/m 15,6 C 19,3 km/h
10.08.2020 18:00 25,3 C 25,3 C 25,4 C 52 % 1008,6 hPa 0,0 l/m 6,5 km/h SO 138 0 min 63 W/m 14,7 C 16,1 km/h
10.08.2020 17:00 29,0 C 29,0 C 29,1 C 35 % 1008,4 hPa 0,0 l/m 1,3 km/h O-SO 113 60 min 631 W/m 12,0 C 9,7 km/h
10.08.2020 16:00 29,6 C 29,6 C 29,9 C 34 % 1008,3 hPa 0,0 l/m 6,4 km/h SO 138 0 min 731 W/m 12,1 C 17,7 km/h
_ Min-Zeit 06:45 06:45 06:50 16:30 16:15 - 20:25 - - - - 06:45 20:25
Minimum _ 11,0 C 11,0 C 11,0 C 32 % 1008,1 hPa - 0,0 km/h - - - - 10,1 C 0,0 km/h
_ Max-Zeit 16:00 16:40 16:00 07:15 07:40 20:20 19:35 - - 16:00 14:25 14:40 19:50
Maximum _ 29,9 C 29,7 C 29,9 C 95 % 1015,2 hPa 0,4 l/m 10,0 km/h
O-SO
- - 5 min 932 W/m 16,7 C 29,0 km/h
SO
Durchschnitt _ 19,1 C 19,1 C 19,2 C 73 % 1012,8 hPa #1,8 l/m 1,4 km/h SO - #6:35 h 527 W/m 13,1 C 5,1 km/h
Copxright - www.gasthof-traube.at